sensor_id;sensor_type;location;lat;lon;timestamp;temperature;humidity
26703;DHT22;14316;51.074;3.704;2023-08-08T00:00:03;14.10;99.90
26703;DHT22;14316;51.074;3.704;2023-08-08T00:02:30;14.00;99.90
26703;DHT22;14316;51.074;3.704;2023-08-08T00:04:56;14.00;99.90
26703;DHT22;14316;51.074;3.704;2023-08-08T00:07:22;14.00;99.90
26703;DHT22;14316;51.074;3.704;2023-08-08T00:09:47;14.00;99.90
26703;DHT22;14316;51.074;3.704;2023-08-08T00:12:13;13.90;99.90
26703;DHT22;14316;51.074;3.704;2023-08-08T00:14:39;13.90;99.90
26703;DHT22;14316;51.074;3.704;2023-08-08T00:17:05;13.90;99.90
26703;DHT22;14316;51.074;3.704;2023-08-08T00:19:31;13.90;99.90
26703;DHT22;14316;51.074;3.704;2023-08-08T00:21:56;13.80;99.90
26703;DHT22;14316;51.074;3.704;2023-08-08T00:24:22;13.80;99.90
26703;DHT22;14316;51.074;3.704;2023-08-08T00:26:48;13.80;99.90
26703;DHT22;14316;51.074;3.704;2023-08-08T00:29:13;13.70;99.90
26703;DHT22;14316;51.074;3.704;2023-08-08T00:31:39;13.70;99.90
26703;DHT22;14316;51.074;3.704;2023-08-08T00:34:05;13.70;99.90
26703;DHT22;14316;51.074;3.704;2023-08-08T00:36:31;13.70;99.90
26703;DHT22;14316;51.074;3.704;2023-08-08T00:38:57;13.70;99.90
26703;DHT22;14316;51.074;3.704;2023-08-08T00:41:22;13.70;99.90
26703;DHT22;14316;51.074;3.704;2023-08-08T00:43:48;13.70;99.90
26703;DHT22;14316;51.074;3.704;2023-08-08T00:46:15;13.70;99.90
26703;DHT22;14316;51.074;3.704;2023-08-08T00:48:41;13.70;99.90
26703;DHT22;14316;51.074;3.704;2023-08-08T00:51:07;13.70;99.90
26703;DHT22;14316;51.074;3.704;2023-08-08T00:53:33;13.60;99.90
26703;DHT22;14316;51.074;3.704;2023-08-08T00:55:59;13.70;99.90
26703;DHT22;14316;51.074;3.704;2023-08-08T00:58:26;13.60;99.90
26703;DHT22;14316;51.074;3.704;2023-08-08T01:00:52;13.60;99.90
26703;DHT22;14316;51.074;3.704;2023-08-08T01:03:20;13.60;99.90
26703;DHT22;14316;51.074;3.704;2023-08-08T01:05:56;13.60;99.90
26703;DHT22;14316;51.074;3.704;2023-08-08T01:08:28;13.50;99.90
26703;DHT22;14316;51.074;3.704;2023-08-08T01:10:57;13.50;99.90
26703;DHT22;14316;51.074;3.704;2023-08-08T01:13:25;13.50;99.90
26703;DHT22;14316;51.074;3.704;2023-08-08T01:15:53;13.50;99.90
26703;DHT22;14316;51.074;3.704;2023-08-08T01:18:21;13.50;99.90
26703;DHT22;14316;51.074;3.704;2023-08-08T01:20:47;13.50;99.90
26703;DHT22;14316;51.074;3.704;2023-08-08T01:23:26;13.50;99.90
26703;DHT22;14316;51.074;3.704;2023-08-08T01:25:54;13.40;99.90
26703;DHT22;14316;51.074;3.704;2023-08-08T01:28:24;13.40;99.90
26703;DHT22;14316;51.074;3.704;2023-08-08T01:30:50;13.40;99.90
26703;DHT22;14316;51.074;3.704;2023-08-08T01:33:16;13.40;99.90
26703;DHT22;14316;51.074;3.704;2023-08-08T01:35:46;13.40;99.90
26703;DHT22;14316;51.074;3.704;2023-08-08T01:38:20;13.40;99.90
26703;DHT22;14316;51.074;3.704;2023-08-08T01:40:48;13.40;99.90
26703;DHT22;14316;51.074;3.704;2023-08-08T01:43:15;13.30;99.90
26703;DHT22;14316;51.074;3.704;2023-08-08T01:45:41;13.30;99.90
26703;DHT22;14316;51.074;3.704;2023-08-08T01:48:09;13.30;99.90
26703;DHT22;14316;51.074;3.704;2023-08-08T01:50:35;13.20;99.90
26703;DHT22;14316;51.074;3.704;2023-08-08T01:53:01;13.20;99.90
26703;DHT22;14316;51.074;3.704;2023-08-08T01:55:27;13.20;99.90
26703;DHT22;14316;51.074;3.704;2023-08-08T01:57:53;13.20;99.90
26703;DHT22;14316;51.074;3.704;2023-08-08T02:00:18;13.20;99.90
26703;DHT22;14316;51.074;3.704;2023-08-08T02:02:44;13.20;99.90
26703;DHT22;14316;51.074;3.704;2023-08-08T02:05:10;13.10;99.90
26703;DHT22;14316;51.074;3.704;2023-08-08T02:07:36;13.10;99.90
26703;DHT22;14316;51.074;3.704;2023-08-08T02:10:02;13.20;99.90
26703;DHT22;14316;51.074;3.704;2023-08-08T02:12:27;13.10;99.90
26703;DHT22;14316;51.074;3.704;2023-08-08T02:14:56;13.20;99.90
26703;DHT22;14316;51.074;3.704;2023-08-08T02:17:21;13.10;99.90
26703;DHT22;14316;51.074;3.704;2023-08-08T02:19:47;13.10;99.90
26703;DHT22;14316;51.074;3.704;2023-08-08T02:22:13;13.10;99.90
26703;DHT22;14316;51.074;3.704;2023-08-08T02:24:39;13.10;99.90
26703;DHT22;14316;51.074;3.704;2023-08-08T02:27:04;13.20;99.90
26703;DHT22;14316;51.074;3.704;2023-08-08T02:29:31;13.10;99.90
26703;DHT22;14316;51.074;3.704;2023-08-08T02:31:56;13.00;99.90
26703;DHT22;14316;51.074;3.704;2023-08-08T02:34:22;13.10;99.90
26703;DHT22;14316;51.074;3.704;2023-08-08T02:36:48;13.00;99.90
26703;DHT22;14316;51.074;3.704;2023-08-08T02:39:13;13.00;99.90
26703;DHT22;14316;51.074;3.704;2023-08-08T02:41:39;13.00;99.90
26703;DHT22;14316;51.074;3.704;2023-08-08T02:44:06;13.00;99.90
26703;DHT22;14316;51.074;3.704;2023-08-08T02:46:32;13.00;99.90
26703;DHT22;14316;51.074;3.704;2023-08-08T02:48:58;13.00;99.90
26703;DHT22;14316;51.074;3.704;2023-08-08T02:51:23;12.90;99.90
26703;DHT22;14316;51.074;3.704;2023-08-08T02:53:49;13.00;99.90
26703;DHT22;14316;51.074;3.704;2023-08-08T02:56:15;12.90;99.90
26703;DHT22;14316;51.074;3.704;2023-08-08T02:58:41;12.90;99.90
26703;DHT22;14316;51.074;3.704;2023-08-08T03:01:06;12.90;99.90
26703;DHT22;14316;51.074;3.704;2023-08-08T03:03:32;12.90;99.90
26703;DHT22;14316;51.074;3.704;2023-08-08T03:05:58;12.90;99.90
26703;DHT22;14316;51.074;3.704;2023-08-08T03:08:23;12.90;99.90
26703;DHT22;14316;51.074;3.704;2023-08-08T03:10:49;12.90;99.90
26703;DHT22;14316;51.074;3.704;2023-08-08T03:13:15;12.90;99.90
26703;DHT22;14316;51.074;3.704;2023-08-08T03:15:40;12.90;99.90
26703;DHT22;14316;51.074;3.704;2023-08-08T03:18:06;12.90;99.90
26703;DHT22;14316;51.074;3.704;2023-08-08T03:20:32;12.90;99.90
26703;DHT22;14316;51.074;3.704;2023-08-08T03:22:57;12.90;99.90
26703;DHT22;14316;51.074;3.704;2023-08-08T03:25:23;12.90;99.90
26703;DHT22;14316;51.074;3.704;2023-08-08T03:27:48;12.90;99.90
26703;DHT22;14316;51.074;3.704;2023-08-08T03:30:15;12.90;99.90
26703;DHT22;14316;51.074;3.704;2023-08-08T03:32:41;12.90;99.90
26703;DHT22;14316;51.074;3.704;2023-08-08T03:35:07;12.90;99.90
26703;DHT22;14316;51.074;3.704;2023-08-08T03:37:34;12.90;99.90
26703;DHT22;14316;51.074;3.704;2023-08-08T03:40:00;12.90;99.90
26703;DHT22;14316;51.074;3.704;2023-08-08T03:42:26;12.90;99.90
26703;DHT22;14316;51.074;3.704;2023-08-08T03:44:51;12.90;99.90
26703;DHT22;14316;51.074;3.704;2023-08-08T03:47:17;12.90;99.90
26703;DHT22;14316;51.074;3.704;2023-08-08T03:49:42;12.90;99.90
26703;DHT22;14316;51.074;3.704;2023-08-08T03:52:08;12.90;99.90
26703;DHT22;14316;51.074;3.704;2023-08-08T03:54:34;12.90;99.90
26703;DHT22;14316;51.074;3.704;2023-08-08T03:57:00;12.90;99.90
26703;DHT22;14316;51.074;3.704;2023-08-08T03:59:26;12.90;99.90
26703;DHT22;14316;51.074;3.704;2023-08-08T04:01:52;12.90;99.90
26703;DHT22;14316;51.074;3.704;2023-08-08T04:04:18;12.90;99.90
26703;DHT22;14316;51.074;3.704;2023-08-08T04:06:43;12.90;99.90
26703;DHT22;14316;51.074;3.704;2023-08-08T04:09:09;13.00;99.90
26703;DHT22;14316;51.074;3.704;2023-08-08T04:11:35;12.90;99.90
26703;DHT22;14316;51.074;3.704;2023-08-08T04:14:01;12.90;99.90
26703;DHT22;14316;51.074;3.704;2023-08-08T04:16:27;12.90;99.90
26703;DHT22;14316;51.074;3.704;2023-08-08T04:18:53;12.90;99.90
26703;DHT22;14316;51.074;3.704;2023-08-08T04:21:19;12.90;99.90
26703;DHT22;14316;51.074;3.704;2023-08-08T04:23:45;12.90;99.90
26703;DHT22;14316;51.074;3.704;2023-08-08T04:26:11;13.00;99.90
26703;DHT22;14316;51.074;3.704;2023-08-08T04:28:37;13.00;99.90
26703;DHT22;14316;51.074;3.704;2023-08-08T04:31:03;13.00;99.90
26703;DHT22;14316;51.074;3.704;2023-08-08T04:33:28;13.00;99.90
26703;DHT22;14316;51.074;3.704;2023-08-08T04:35:55;13.00;99.90
26703;DHT22;14316;51.074;3.704;2023-08-08T04:38:20;13.00;99.90
26703;DHT22;14316;51.074;3.704;2023-08-08T04:40:46;13.10;99.90
26703;DHT22;14316;51.074;3.704;2023-08-08T04:43:12;13.10;99.90
26703;DHT22;14316;51.074;3.704;2023-08-08T04:45:37;13.10;99.90
26703;DHT22;14316;51.074;3.704;2023-08-08T04:48:03;13.10;99.90
26703;DHT22;14316;51.074;3.704;2023-08-08T04:50:29;13.10;99.90
26703;DHT22;14316;51.074;3.704;2023-08-08T04:52:55;13.10;99.90
26703;DHT22;14316;51.074;3.704;2023-08-08T04:55:21;13.10;99.90
26703;DHT22;14316;51.074;3.704;2023-08-08T04:57:46;13.10;99.90
26703;DHT22;14316;51.074;3.704;2023-08-08T05:00:14;13.20;99.90
26703;DHT22;14316;51.074;3.704;2023-08-08T05:02:39;13.20;99.90
26703;DHT22;14316;51.074;3.704;2023-08-08T05:05:07;13.20;99.90
26703;DHT22;14316;51.074;3.704;2023-08-08T05:07:32;13.20;99.90
26703;DHT22;14316;51.074;3.704;2023-08-08T05:09:58;13.30;99.90
26703;DHT22;14316;51.074;3.704;2023-08-08T05:12:24;13.30;99.90
26703;DHT22;14316;51.074;3.704;2023-08-08T05:14:49;13.30;99.90
26703;DHT22;14316;51.074;3.704;2023-08-08T05:17:15;13.30;99.90
26703;DHT22;14316;51.074;3.704;2023-08-08T05:19:40;13.40;99.90
26703;DHT22;14316;51.074;3.704;2023-08-08T05:22:06;13.40;99.90
26703;DHT22;14316;51.074;3.704;2023-08-08T05:24:32;13.40;99.90
26703;DHT22;14316;51.074;3.704;2023-08-08T05:26:58;13.50;99.90
26703;DHT22;14316;51.074;3.704;2023-08-08T05:29:23;13.50;99.90
26703;DHT22;14316;51.074;3.704;2023-08-08T05:31:49;13.50;99.90
26703;DHT22;14316;51.074;3.704;2023-08-08T05:34:14;13.50;99.90
26703;DHT22;14316;51.074;3.704;2023-08-08T05:36:40;13.50;99.90
26703;DHT22;14316;51.074;3.704;2023-08-08T05:39:05;13.50;99.90
26703;DHT22;14316;51.074;3.704;2023-08-08T05:41:32;13.60;99.90
26703;DHT22;14316;51.074;3.704;2023-08-08T05:43:59;13.50;99.90
26703;DHT22;14316;51.074;3.704;2023-08-08T05:46:24;13.50;99.90
26703;DHT22;14316;51.074;3.704;2023-08-08T05:48:50;13.60;99.90
26703;DHT22;14316;51.074;3.704;2023-08-08T05:51:16;13.60;99.90
26703;DHT22;14316;51.074;3.704;2023-08-08T05:53:42;13.60;99.90
26703;DHT22;14316;51.074;3.704;2023-08-08T05:56:08;13.60;99.90
26703;DHT22;14316;51.074;3.704;2023-08-08T05:58:34;13.70;99.90
26703;DHT22;14316;51.074;3.704;2023-08-08T06:01:02;13.80;99.90
26703;DHT22;14316;51.074;3.704;2023-08-08T06:03:31;13.90;99.90
26703;DHT22;14316;51.074;3.704;2023-08-08T06:05:57;13.90;99.90
26703;DHT22;14316;51.074;3.704;2023-08-08T06:08:23;14.00;99.90
26703;DHT22;14316;51.074;3.704;2023-08-08T06:10:48;14.10;99.90
26703;DHT22;14316;51.074;3.704;2023-08-08T06:13:14;14.20;99.90
26703;DHT22;14316;51.074;3.704;2023-08-08T06:15:40;14.20;99.90
26703;DHT22;14316;51.074;3.704;2023-08-08T06:18:06;14.30;99.90
26703;DHT22;14316;51.074;3.704;2023-08-08T06:20:31;14.40;99.90
26703;DHT22;14316;51.074;3.704;2023-08-08T06:22:57;14.50;99.90
26703;DHT22;14316;51.074;3.704;2023-08-08T06:25:23;14.60;99.90
26703;DHT22;14316;51.074;3.704;2023-08-08T06:27:48;14.70;99.90
26703;DHT22;14316;51.074;3.704;2023-08-08T06:30:15;14.70;99.90
26703;DHT22;14316;51.074;3.704;2023-08-08T06:32:40;14.90;99.90
26703;DHT22;14316;51.074;3.704;2023-08-08T06:35:06;14.90;99.90
26703;DHT22;14316;51.074;3.704;2023-08-08T06:37:32;15.00;99.90
26703;DHT22;14316;51.074;3.704;2023-08-08T06:39:58;15.10;99.90
26703;DHT22;14316;51.074;3.704;2023-08-08T06:42:24;15.20;99.90
26703;DHT22;14316;51.074;3.704;2023-08-08T06:44:49;15.20;99.90
26703;DHT22;14316;51.074;3.704;2023-08-08T06:47:15;15.30;99.90
26703;DHT22;14316;51.074;3.704;2023-08-08T06:49:41;15.50;99.90
26703;DHT22;14316;51.074;3.704;2023-08-08T06:52:07;15.60;99.90
26703;DHT22;14316;51.074;3.704;2023-08-08T06:54:33;15.70;99.90
26703;DHT22;14316;51.074;3.704;2023-08-08T06:56:59;15.80;99.90
26703;DHT22;14316;51.074;3.704;2023-08-08T06:59:26;15.70;99.90
26703;DHT22;14316;51.074;3.704;2023-08-08T07:01:53;15.60;99.90
26703;DHT22;14316;51.074;3.704;2023-08-08T07:04:19;15.60;99.90
26703;DHT22;14316;51.074;3.704;2023-08-08T07:06:44;15.70;99.90
26703;DHT22;14316;51.074;3.704;2023-08-08T07:09:11;15.70;99.90
26703;DHT22;14316;51.074;3.704;2023-08-08T07:11:37;15.70;99.90
26703;DHT22;14316;51.074;3.704;2023-08-08T07:14:03;15.70;99.90
26703;DHT22;14316;51.074;3.704;2023-08-08T07:16:29;15.80;99.90
26703;DHT22;14316;51.074;3.704;2023-08-08T07:18:55;15.80;99.90
26703;DHT22;14316;51.074;3.704;2023-08-08T07:21:20;15.90;99.90
26703;DHT22;14316;51.074;3.704;2023-08-08T07:23:46;16.00;99.90
26703;DHT22;14316;51.074;3.704;2023-08-08T07:26:12;16.20;99.90
26703;DHT22;14316;51.074;3.704;2023-08-08T07:28:38;16.30;99.90
26703;DHT22;14316;51.074;3.704;2023-08-08T07:31:03;16.40;99.90
26703;DHT22;14316;51.074;3.704;2023-08-08T07:33:29;16.40;99.90
26703;DHT22;14316;51.074;3.704;2023-08-08T07:35:55;16.40;99.90
26703;DHT22;14316;51.074;3.704;2023-08-08T07:38:20;16.40;99.90
26703;DHT22;14316;51.074;3.704;2023-08-08T07:40:46;16.30;99.90
26703;DHT22;14316;51.074;3.704;2023-08-08T07:43:13;16.30;99.90
26703;DHT22;14316;51.074;3.704;2023-08-08T07:45:39;16.20;99.90
26703;DHT22;14316;51.074;3.704;2023-08-08T07:48:05;16.30;99.90
26703;DHT22;14316;51.074;3.704;2023-08-08T07:50:31;16.30;99.90
26703;DHT22;14316;51.074;3.704;2023-08-08T07:52:57;16.30;99.90
26703;DHT22;14316;51.074;3.704;2023-08-08T07:55:22;16.20;99.90
26703;DHT22;14316;51.074;3.704;2023-08-08T07:57:48;16.20;99.90
26703;DHT22;14316;51.074;3.704;2023-08-08T08:00:14;16.30;99.90
26703;DHT22;14316;51.074;3.704;2023-08-08T08:02:44;16.30;99.90
26703;DHT22;14316;51.074;3.704;2023-08-08T08:05:10;16.20;99.90
26703;DHT22;14316;51.074;3.704;2023-08-08T08:07:37;16.20;99.90
26703;DHT22;14316;51.074;3.704;2023-08-08T08:10:04;16.20;99.90
26703;DHT22;14316;51.074;3.704;2023-08-08T08:12:31;16.10;99.90
26703;DHT22;14316;51.074;3.704;2023-08-08T08:14:57;16.10;99.90
26703;DHT22;14316;51.074;3.704;2023-08-08T08:17:23;16.10;99.90
26703;DHT22;14316;51.074;3.704;2023-08-08T08:19:50;16.20;99.90
26703;DHT22;14316;51.074;3.704;2023-08-08T08:22:16;16.30;99.90
26703;DHT22;14316;51.074;3.704;2023-08-08T08:24:42;16.60;99.90
26703;DHT22;14316;51.074;3.704;2023-08-08T08:27:08;16.60;99.90
26703;DHT22;14316;51.074;3.704;2023-08-08T08:29:34;16.80;99.90
26703;DHT22;14316;51.074;3.704;2023-08-08T08:32:00;17.00;99.90
26703;DHT22;14316;51.074;3.704;2023-08-08T08:34:25;17.10;99.90
26703;DHT22;14316;51.074;3.704;2023-08-08T08:36:51;17.10;99.90
26703;DHT22;14316;51.074;3.704;2023-08-08T08:39:17;17.00;99.90
26703;DHT22;14316;51.074;3.704;2023-08-08T08:41:46;17.10;99.90
26703;DHT22;14316;51.074;3.704;2023-08-08T08:44:15;17.20;99.90
26703;DHT22;14316;51.074;3.704;2023-08-08T08:46:42;17.00;99.90
26703;DHT22;14316;51.074;3.704;2023-08-08T08:49:09;16.90;99.90
26703;DHT22;14316;51.074;3.704;2023-08-08T08:51:36;16.90;99.90
26703;DHT22;14316;51.074;3.704;2023-08-08T08:54:03;17.00;99.90
26703;DHT22;14316;51.074;3.704;2023-08-08T08:56:28;17.00;99.90
26703;DHT22;14316;51.074;3.704;2023-08-08T08:58:55;17.20;99.90
26703;DHT22;14316;51.074;3.704;2023-08-08T09:01:21;17.40;99.90
26703;DHT22;14316;51.074;3.704;2023-08-08T09:03:49;17.50;99.90
26703;DHT22;14316;51.074;3.704;2023-08-08T09:06:15;17.60;99.90
26703;DHT22;14316;51.074;3.704;2023-08-08T09:08:41;17.90;99.90
26703;DHT22;14316;51.074;3.704;2023-08-08T09:11:07;18.20;99.90
26703;DHT22;14316;51.074;3.704;2023-08-08T09:13:36;18.60;99.90
26703;DHT22;14316;51.074;3.704;2023-08-08T09:16:05;18.80;99.90
26703;DHT22;14316;51.074;3.704;2023-08-08T09:18:31;18.70;99.90
26703;DHT22;14316;51.074;3.704;2023-08-08T09:20:58;18.80;99.90
26703;DHT22;14316;51.074;3.704;2023-08-08T09:23:24;18.70;99.90
26703;DHT22;14316;51.074;3.704;2023-08-08T09:25:50;18.60;99.90
26703;DHT22;14316;51.074;3.704;2023-08-08T09:28:15;18.70;99.90
26703;DHT22;14316;51.074;3.704;2023-08-08T09:30:42;18.90;99.90
26703;DHT22;14316;51.074;3.704;2023-08-08T09:33:08;18.70;99.90
26703;DHT22;14316;51.074;3.704;2023-08-08T09:35:38;18.60;99.90
26703;DHT22;14316;51.074;3.704;2023-08-08T09:38:04;18.60;99.90
26703;DHT22;14316;51.074;3.704;2023-08-08T09:40:30;18.70;99.90
26703;DHT22;14316;51.074;3.704;2023-08-08T09:42:57;19.10;99.90
26703;DHT22;14316;51.074;3.704;2023-08-08T09:45:24;19.20;99.90
26703;DHT22;14316;51.074;3.704;2023-08-08T09:47:50;19.30;99.90
26703;DHT22;14316;51.074;3.704;2023-08-08T09:50:17;18.70;99.90
26703;DHT22;14316;51.074;3.704;2023-08-08T09:52:45;18.50;99.90
26703;DHT22;14316;51.074;3.704;2023-08-08T09:55:11;18.30;99.90
26703;DHT22;14316;51.074;3.704;2023-08-08T09:57:40;18.10;99.90
26703;DHT22;14316;51.074;3.704;2023-08-08T10:00:09;18.10;99.90
26703;DHT22;14316;51.074;3.704;2023-08-08T10:02:43;17.90;99.90
26703;DHT22;14316;51.074;3.704;2023-08-08T10:05:10;17.80;99.90
26703;DHT22;14316;51.074;3.704;2023-08-08T10:07:35;18.00;99.90
26703;DHT22;14316;51.074;3.704;2023-08-08T10:10:01;18.10;99.90
26703;DHT22;14316;51.074;3.704;2023-08-08T10:12:28;18.10;99.90
26703;DHT22;14316;51.074;3.704;2023-08-08T10:14:55;18.10;99.90
26703;DHT22;14316;51.074;3.704;2023-08-08T10:17:20;18.20;99.90
26703;DHT22;14316;51.074;3.704;2023-08-08T10:19:51;18.30;99.90
26703;DHT22;14316;51.074;3.704;2023-08-08T10:22:27;18.40;99.90
26703;DHT22;14316;51.074;3.704;2023-08-08T10:24:53;18.60;99.90
26703;DHT22;14316;51.074;3.704;2023-08-08T10:27:33;18.80;99.90
26703;DHT22;14316;51.074;3.704;2023-08-08T10:30:08;19.00;99.90
26703;DHT22;14316;51.074;3.704;2023-08-08T10:32:40;19.20;99.90
26703;DHT22;14316;51.074;3.704;2023-08-08T10:35:07;19.40;99.90
26703;DHT22;14316;51.074;3.704;2023-08-08T10:37:35;19.10;99.90
26703;DHT22;14316;51.074;3.704;2023-08-08T10:40:02;18.90;99.90
26703;DHT22;14316;51.074;3.704;2023-08-08T10:42:33;18.90;99.90
26703;DHT22;14316;51.074;3.704;2023-08-08T10:45:08;19.10;99.90
26703;DHT22;14316;51.074;3.704;2023-08-08T10:47:35;19.10;99.90
26703;DHT22;14316;51.074;3.704;2023-08-08T10:50:06;18.80;99.90
26703;DHT22;14316;51.074;3.704;2023-08-08T10:52:37;18.50;99.90
26703;DHT22;14316;51.074;3.704;2023-08-08T10:55:03;18.30;99.90
26703;DHT22;14316;51.074;3.704;2023-08-08T10:57:30;18.50;99.90
26703;DHT22;14316;51.074;3.704;2023-08-08T11:00:16;18.70;99.90
26703;DHT22;14316;51.074;3.704;2023-08-08T11:02:42;18.80;99.90
26703;DHT22;14316;51.074;3.704;2023-08-08T11:05:09;18.60;99.90
26703;DHT22;14316;51.074;3.704;2023-08-08T11:07:35;18.70;99.90
26703;DHT22;14316;51.074;3.704;2023-08-08T11:10:03;18.70;99.90
26703;DHT22;14316;51.074;3.704;2023-08-08T11:12:29;18.90;99.90
26703;DHT22;14316;51.074;3.704;2023-08-08T11:14:55;19.50;99.90
26703;DHT22;14316;51.074;3.704;2023-08-08T11:17:20;19.70;99.90
26703;DHT22;14316;51.074;3.704;2023-08-08T11:19:46;19.60;99.90
26703;DHT22;14316;51.074;3.704;2023-08-08T11:22:12;19.60;99.90
26703;DHT22;14316;51.074;3.704;2023-08-08T11:24:37;19.50;99.90
26703;DHT22;14316;51.074;3.704;2023-08-08T11:27:03;19.80;99.90
26703;DHT22;14316;51.074;3.704;2023-08-08T11:29:29;20.20;99.90
26703;DHT22;14316;51.074;3.704;2023-08-08T11:32:06;20.70;99.90
26703;DHT22;14316;51.074;3.704;2023-08-08T11:34:35;21.00;99.90
26703;DHT22;14316;51.074;3.704;2023-08-08T11:37:01;21.20;99.90
26703;DHT22;14316;51.074;3.704;2023-08-08T11:39:29;21.50;99.90
26703;DHT22;14316;51.074;3.704;2023-08-08T11:41:55;21.90;99.90
26703;DHT22;14316;51.074;3.704;2023-08-08T11:44:21;22.00;99.90
26703;DHT22;14316;51.074;3.704;2023-08-08T11:46:47;21.80;99.90
26703;DHT22;14316;51.074;3.704;2023-08-08T11:49:14;21.20;99.90
26703;DHT22;14316;51.074;3.704;2023-08-08T11:51:43;20.90;99.90
26703;DHT22;14316;51.074;3.704;2023-08-08T11:54:09;20.50;99.90
26703;DHT22;14316;51.074;3.704;2023-08-08T11:56:35;20.30;99.90
26703;DHT22;14316;51.074;3.704;2023-08-08T11:59:05;20.80;99.90
26703;DHT22;14316;51.074;3.704;2023-08-08T12:01:33;22.00;99.90
26703;DHT22;14316;51.074;3.704;2023-08-08T12:04:04;22.20;99.90
26703;DHT22;14316;51.074;3.704;2023-08-08T12:06:30;22.30;99.90
26703;DHT22;14316;51.074;3.704;2023-08-08T12:08:56;23.00;99.90
26703;DHT22;14316;51.074;3.704;2023-08-08T12:11:21;23.80;99.90
26703;DHT22;14316;51.074;3.704;2023-08-08T12:13:47;24.50;99.90
26703;DHT22;14316;51.074;3.704;2023-08-08T12:16:13;23.50;99.90
26703;DHT22;14316;51.074;3.704;2023-08-08T12:18:40;22.30;99.90
26703;DHT22;14316;51.074;3.704;2023-08-08T12:21:08;21.60;99.90
26703;DHT22;14316;51.074;3.704;2023-08-08T12:23:35;21.20;99.90
26703;DHT22;14316;51.074;3.704;2023-08-08T12:26:03;21.50;99.90
26703;DHT22;14316;51.074;3.704;2023-08-08T12:28:31;21.90;99.90
26703;DHT22;14316;51.074;3.704;2023-08-08T12:30:56;22.10;99.90
26703;DHT22;14316;51.074;3.704;2023-08-08T12:33:22;21.80;99.90
26703;DHT22;14316;51.074;3.704;2023-08-08T12:35:48;21.10;99.90
26703;DHT22;14316;51.074;3.704;2023-08-08T12:38:14;21.10;99.90
26703;DHT22;14316;51.074;3.704;2023-08-08T12:40:40;20.90;99.90
26703;DHT22;14316;51.074;3.704;2023-08-08T12:43:10;20.90;99.90
26703;DHT22;14316;51.074;3.704;2023-08-08T12:45:39;20.80;99.90
26703;DHT22;14316;51.074;3.704;2023-08-08T12:48:05;20.80;99.90
26703;DHT22;14316;51.074;3.704;2023-08-08T12:50:31;21.10;99.90
26703;DHT22;14316;51.074;3.704;2023-08-08T12:52:57;21.20;99.90
26703;DHT22;14316;51.074;3.704;2023-08-08T12:55:23;20.50;99.90
26703;DHT22;14316;51.074;3.704;2023-08-08T12:57:48;20.40;99.90
26703;DHT22;14316;51.074;3.704;2023-08-08T13:00:14;20.90;99.90
26703;DHT22;14316;51.074;3.704;2023-08-08T13:02:40;21.00;99.90
26703;DHT22;14316;51.074;3.704;2023-08-08T13:05:06;21.10;99.90
26703;DHT22;14316;51.074;3.704;2023-08-08T13:07:32;21.60;99.90
26703;DHT22;14316;51.074;3.704;2023-08-08T13:09:59;21.60;99.90
26703;DHT22;14316;51.074;3.704;2023-08-08T13:12:24;21.80;99.90
26703;DHT22;14316;51.074;3.704;2023-08-08T13:14:50;22.00;99.90
26703;DHT22;14316;51.074;3.704;2023-08-08T13:17:16;22.00;99.90
26703;DHT22;14316;51.074;3.704;2023-08-08T13:19:41;21.40;99.90
26703;DHT22;14316;51.074;3.704;2023-08-08T13:22:07;21.30;99.90
26703;DHT22;14316;51.074;3.704;2023-08-08T13:24:33;20.90;99.90
26703;DHT22;14316;51.074;3.704;2023-08-08T13:26:59;20.60;99.90
26703;DHT22;14316;51.074;3.704;2023-08-08T13:29:24;20.40;99.90
26703;DHT22;14316;51.074;3.704;2023-08-08T13:31:50;20.10;99.90
26703;DHT22;14316;51.074;3.704;2023-08-08T13:34:16;19.80;99.90
26703;DHT22;14316;51.074;3.704;2023-08-08T13:36:42;19.70;99.90
26703;DHT22;14316;51.074;3.704;2023-08-08T13:39:07;19.70;99.90
26703;DHT22;14316;51.074;3.704;2023-08-08T13:41:35;19.60;99.90
26703;DHT22;14316;51.074;3.704;2023-08-08T13:44:00;19.30;99.90
26703;DHT22;14316;51.074;3.704;2023-08-08T13:46:26;19.20;99.90
26703;DHT22;14316;51.074;3.704;2023-08-08T13:48:52;19.20;99.90
26703;DHT22;14316;51.074;3.704;2023-08-08T13:51:17;19.30;99.90
26703;DHT22;14316;51.074;3.704;2023-08-08T13:53:43;19.20;99.90
26703;DHT22;14316;51.074;3.704;2023-08-08T13:56:10;19.10;99.90
26703;DHT22;14316;51.074;3.704;2023-08-08T13:58:36;19.10;99.90
26703;DHT22;14316;51.074;3.704;2023-08-08T14:01:02;19.20;99.90
26703;DHT22;14316;51.074;3.704;2023-08-08T14:03:28;19.50;99.90
26703;DHT22;14316;51.074;3.704;2023-08-08T14:05:53;19.50;99.90
26703;DHT22;14316;51.074;3.704;2023-08-08T14:08:19;19.60;99.90
26703;DHT22;14316;51.074;3.704;2023-08-08T14:10:46;19.50;99.90
26703;DHT22;14316;51.074;3.704;2023-08-08T14:13:11;19.20;99.90
26703;DHT22;14316;51.074;3.704;2023-08-08T14:15:37;19.00;99.90
26703;DHT22;14316;51.074;3.704;2023-08-08T14:18:03;18.80;99.90
26703;DHT22;14316;51.074;3.704;2023-08-08T14:20:29;18.80;99.90
26703;DHT22;14316;51.074;3.704;2023-08-08T14:22:55;18.80;99.90
26703;DHT22;14316;51.074;3.704;2023-08-08T14:25:21;18.80;99.90
26703;DHT22;14316;51.074;3.704;2023-08-08T14:27:47;18.70;99.90
26703;DHT22;14316;51.074;3.704;2023-08-08T14:30:13;18.70;99.90
26703;DHT22;14316;51.074;3.704;2023-08-08T14:32:38;18.60;99.90
26703;DHT22;14316;51.074;3.704;2023-08-08T14:35:04;18.40;99.90
26703;DHT22;14316;51.074;3.704;2023-08-08T14:37:31;18.40;99.90
26703;DHT22;14316;51.074;3.704;2023-08-08T14:39:57;18.30;99.90
26703;DHT22;14316;51.074;3.704;2023-08-08T14:42:22;18.30;99.90
26703;DHT22;14316;51.074;3.704;2023-08-08T14:44:48;18.40;99.90
26703;DHT22;14316;51.074;3.704;2023-08-08T14:47:14;18.20;99.90
26703;DHT22;14316;51.074;3.704;2023-08-08T14:49:41;17.70;99.90
26703;DHT22;14316;51.074;3.704;2023-08-08T14:52:07;17.40;99.90
26703;DHT22;14316;51.074;3.704;2023-08-08T14:54:34;17.40;99.90
26703;DHT22;14316;51.074;3.704;2023-08-08T14:57:00;17.30;99.90
26703;DHT22;14316;51.074;3.704;2023-08-08T14:59:27;17.30;99.90
26703;DHT22;14316;51.074;3.704;2023-08-08T15:01:53;17.20;99.90
26703;DHT22;14316;51.074;3.704;2023-08-08T15:04:19;17.10;99.90
26703;DHT22;14316;51.074;3.704;2023-08-08T15:06:45;16.90;99.90
26703;DHT22;14316;51.074;3.704;2023-08-08T15:09:11;16.70;99.90
26703;DHT22;14316;51.074;3.704;2023-08-08T15:11:37;16.50;99.90
26703;DHT22;14316;51.074;3.704;2023-08-08T15:14:02;16.60;99.90
26703;DHT22;14316;51.074;3.704;2023-08-08T15:16:28;16.60;99.90
26703;DHT22;14316;51.074;3.704;2023-08-08T15:18:54;16.60;99.90
26703;DHT22;14316;51.074;3.704;2023-08-08T15:21:20;16.70;99.90
26703;DHT22;14316;51.074;3.704;2023-08-08T15:23:47;16.70;99.90